createdAt,value
2018-03-17T00:02:07.474Z,2.20
2018-03-17T00:04:34.340Z,2.20
2018-03-17T00:07:01.269Z,2.20
2018-03-17T00:09:28.141Z,2.00
2018-03-17T00:11:55.824Z,2.30
2018-03-17T00:14:22.691Z,2.30
2018-03-17T00:16:49.640Z,2.10
2018-03-17T00:19:16.510Z,2.10
2018-03-17T00:21:43.515Z,2.10
2018-03-17T00:24:10.384Z,2.10
2018-03-17T00:26:37.269Z,2.00
2018-03-17T00:29:04.230Z,2.00
2018-03-17T00:31:31.838Z,1.80
2018-03-17T00:33:58.759Z,1.80
2018-03-17T00:36:25.624Z,1.70
2018-03-17T00:38:52.562Z,1.40
2018-03-17T00:41:19.411Z,1.60
2018-03-17T00:43:46.334Z,1.80
2018-03-17T00:46:13.303Z,1.50
2018-03-17T00:48:40.240Z,1.30
2018-03-17T00:51:07.265Z,1.50
2018-03-17T00:53:34.880Z,1.60
2018-03-17T00:56:01.884Z,1.60
2018-03-17T00:58:28.824Z,1.60
2018-03-17T01:00:55.739Z,1.50
2018-03-17T01:03:22.665Z,1.50
2018-03-17T01:05:49.716Z,1.40
2018-03-17T01:08:16.729Z,1.40
2018-03-17T01:10:43.656Z,1.60
2018-03-17T01:13:12.954Z,1.40
2018-03-17T01:15:40.011Z,1.40
2018-03-17T01:18:06.887Z,1.40
2018-03-17T01:20:33.822Z,1.50
2018-03-17T01:23:00.671Z,1.40
2018-03-17T01:25:27.616Z,1.60
2018-03-17T01:27:54.483Z,1.50
2018-03-17T01:30:21.423Z,1.80
2018-03-17T01:32:48.283Z,1.70
2018-03-17T01:35:15.239Z,1.60
2018-03-17T01:37:42.102Z,1.80
2018-03-17T01:40:09.716Z,1.70
2018-03-17T01:42:36.651Z,1.70
2018-03-17T01:45:03.665Z,1.40
2018-03-17T01:47:31.338Z,1.70
2018-03-17T01:49:58.212Z,1.70
2018-03-17T01:52:25.151Z,1.50
2018-03-17T01:54:52.023Z,1.30
2018-03-17T01:57:19.000Z,1.60
2018-03-17T01:59:46.667Z,1.70
2018-03-17T02:02:14.432Z,1.40
2018-03-17T02:04:42.221Z,1.10
2018-03-17T02:07:09.082Z,1.10
2018-03-17T02:09:35.984Z,1.40
2018-03-17T02:12:02.911Z,1.40
2018-03-17T02:14:29.775Z,1.40
2018-03-17T02:16:56.720Z,1.50
2018-03-17T02:19:23.615Z,1.20
2018-03-17T02:21:50.567Z,1.20
2018-03-17T02:24:17.432Z,1.20
2018-03-17T02:26:44.311Z,1.40
2018-03-17T02:29:11.987Z,1.10
2018-03-17T02:31:38.846Z,1.10
2018-03-17T02:34:05.724Z,1.30
2018-03-17T02:36:32.685Z,1.30
2018-03-17T02:38:59.553Z,1.10
2018-03-17T02:41:27.227Z,0.80
2018-03-17T02:43:54.835Z,1.00
2018-03-17T02:46:21.828Z,0.90
2018-03-17T02:48:48.828Z,1.10
2018-03-17T02:51:15.683Z,1.20
2018-03-17T02:53:42.599Z,0.90
2018-03-17T02:56:09.455Z,0.80
2018-03-17T02:58:36.384Z,1.00
2018-03-17T03:01:03.267Z,0.90
2018-03-17T03:03:30.204Z,0.90
2018-03-17T03:05:57.095Z,1.20
2018-03-17T03:08:24.775Z,1.50
2018-03-17T03:10:51.774Z,1.50
2018-03-17T03:13:18.705Z,1.30
2018-03-17T03:15:45.565Z,1.40
2018-03-17T03:18:12.495Z,1.60
2018-03-17T03:20:39.432Z,1.10
2018-03-17T03:23:06.335Z,1.00
2018-03-17T03:25:33.288Z,1.20
2018-03-17T03:28:00.153Z,1.00
2018-03-17T03:30:27.032Z,0.80
2018-03-17T03:32:53.956Z,0.90
2018-03-17T03:35:20.901Z,1.00
2018-03-17T03:37:47.856Z,1.10
2018-03-17T03:40:15.534Z,1.00
2018-03-17T03:42:42.457Z,1.00
2018-03-17T03:45:09.324Z,1.00
2018-03-17T03:47:36.267Z,0.80
2018-03-17T03:50:03.315Z,0.80
2018-03-17T03:52:30.240Z,0.80
2018-03-17T03:54:57.166Z,0.80
2018-03-17T03:57:24.028Z,0.90
2018-03-17T03:59:51.008Z,1.00
2018-03-17T04:02:17.947Z,1.20
2018-03-17T04:04:44.820Z,1.00
2018-03-17T04:07:12.491Z,1.00
2018-03-17T04:09:40.097Z,1.00
2018-03-17T04:12:07.089Z,1.00
2018-03-17T04:14:34.692Z,1.00
2018-03-17T04:17:01.640Z,1.00
2018-03-17T04:19:28.509Z,1.10
2018-03-17T04:21:55.535Z,0.80
2018-03-17T04:24:22.496Z,0.80
2018-03-17T04:26:49.364Z,0.90
2018-03-17T04:29:17.115Z,0.90
2018-03-17T04:31:43.991Z,0.90
2018-03-17T04:34:11.653Z,0.90
2018-03-17T04:36:38.614Z,0.90
2018-03-17T04:39:05.511Z,0.80
2018-03-17T04:41:32.463Z,0.80
2018-03-17T04:43:59.405Z,0.90
2018-03-17T04:46:26.354Z,0.90
2018-03-17T04:48:53.208Z,0.90
2018-03-17T04:51:20.160Z,0.70
2018-03-17T04:53:47.024Z,0.80
2018-03-17T04:56:14.685Z,0.80
2018-03-17T04:58:42.338Z,0.90
2018-03-17T05:01:09.203Z,0.90
2018-03-17T05:03:36.933Z,0.80
2018-03-17T05:06:03.934Z,0.80
2018-03-17T05:08:30.864Z,0.90
2018-03-17T05:10:57.742Z,0.90
2018-03-17T05:13:24.679Z,0.70
2018-03-17T05:15:51.555Z,0.70
2018-03-17T05:18:18.500Z,0.80
2018-03-17T05:20:45.356Z,0.80
2018-03-17T05:23:12.279Z,0.80
2018-03-17T05:25:39.143Z,0.70
2018-03-17T05:28:19.967Z,0.70
2018-03-17T05:30:47.465Z,0.80
2018-03-17T05:33:14.421Z,0.80
2018-03-17T05:35:41.356Z,0.60
2018-03-17T05:38:08.255Z,0.30
2018-03-17T05:40:35.251Z,0.20
2018-03-17T05:43:02.212Z,0.30
2018-03-17T05:45:29.136Z,0.50
2018-03-17T05:47:56.087Z,0.30
2018-03-17T05:50:22.966Z,0.70
2018-03-17T05:52:50.624Z,0.60
2018-03-17T05:55:17.472Z,0.60
2018-03-17T05:57:44.393Z,0.60
2018-03-17T06:00:11.451Z,0.70
2018-03-17T06:02:38.321Z,0.50
2018-03-17T06:05:05.995Z,0.30
2018-03-17T06:07:32.912Z,0.20
2018-03-17T06:09:59.774Z,0.40
2018-03-17T06:12:27.442Z,0.60
2018-03-17T06:14:54.313Z,0.60
2018-03-17T06:17:21.265Z,0.60
2018-03-17T06:19:48.133Z,0.70
2018-03-17T06:22:15.084Z,0.60
2018-03-17T06:24:41.967Z,0.80
2018-03-17T06:27:08.899Z,0.40
2018-03-17T06:29:36.574Z,0.50
2018-03-17T06:32:03.457Z,0.50
2018-03-17T06:34:30.422Z,0.50
2018-03-17T06:36:57.299Z,0.60
2018-03-17T06:39:24.928Z,0.70
2018-03-17T06:41:51.876Z,0.70
2018-03-17T06:44:18.865Z,0.50
2018-03-17T06:46:46.455Z,0.60
2018-03-17T06:49:13.454Z,0.60
2018-03-17T06:51:40.389Z,0.50
2018-03-17T06:54:07.389Z,0.30
2018-03-17T06:56:34.284Z,0.10
2018-03-17T06:59:01.158Z,0.40
2018-03-17T07:01:28.851Z,0.60
2018-03-17T07:03:55.725Z,0.50
2018-03-17T07:06:22.667Z,0.50
2018-03-17T07:08:49.595Z,0.30
2018-03-17T07:11:16.539Z,0.20
2018-03-17T07:13:43.420Z,0.40
2018-03-17T07:16:10.355Z,0.10
2018-03-17T07:18:37.231Z,0.40
2018-03-17T07:21:04.919Z,0.40
2018-03-17T07:23:31.844Z,0.40
2018-03-17T07:25:59.503Z,0.40
2018-03-17T07:28:27.176Z,0.00
2018-03-17T07:30:54.784Z,0.40
2018-03-17T07:33:21.699Z,0.30
2018-03-17T07:35:48.560Z,0.00
2018-03-17T07:38:15.579Z,0.00
2018-03-17T07:40:53.149Z,0.00
2018-03-17T07:43:29.907Z,-0.10
2018-03-17T07:45:59.130Z,-0.10
2018-03-17T07:48:26.112Z,-0.10
2018-03-17T07:50:58.365Z,0.20
2018-03-17T07:53:25.469Z,0.30
2018-03-17T07:56:00.132Z,0.60
2018-03-17T07:58:28.535Z,0.60
2018-03-17T08:00:55.416Z,0.60
2018-03-17T08:03:22.288Z,0.70
2018-03-17T08:05:49.342Z,0.30
2018-03-17T08:08:17.030Z,0.30
2018-03-17T08:10:45.444Z,0.30
2018-03-17T08:13:12.396Z,0.70
2018-03-17T08:15:39.329Z,0.80
2018-03-17T08:18:06.224Z,0.70
2018-03-17T08:20:34.601Z,0.90
2018-03-17T08:23:02.600Z,0.80
2018-03-17T08:25:29.547Z,0.50
2018-03-17T08:27:56.418Z,0.70
2018-03-17T08:30:24.903Z,0.50
2018-03-17T08:32:52.045Z,0.60
2018-03-17T08:35:25.079Z,0.70
2018-03-17T08:37:56.711Z,1.10
2018-03-17T08:40:24.328Z,1.30
2018-03-17T08:42:51.270Z,1.20
2018-03-17T08:45:20.451Z,1.00
2018-03-17T08:47:48.868Z,1.00
2018-03-17T08:50:16.559Z,0.70
2018-03-17T08:52:47.940Z,0.60
2018-03-17T08:55:14.832Z,0.50
2018-03-17T08:57:41.765Z,0.70
2018-03-17T09:00:08.713Z,0.90
2018-03-17T09:02:35.589Z,1.10
2018-03-17T09:05:02.665Z,0.20
2018-03-17T09:07:29.651Z,0.10
2018-03-17T09:09:56.672Z,0.10
2018-03-17T09:12:24.301Z,0.70
2018-03-17T09:14:52.760Z,0.70
2018-03-17T09:17:19.760Z,0.90
2018-03-17T09:19:46.644Z,0.90
2018-03-17T09:22:19.602Z,0.50
2018-03-17T09:24:47.289Z,0.90
2018-03-17T09:27:14.226Z,0.90
2018-03-17T09:29:41.838Z,1.10
2018-03-17T09:32:08.807Z,1.10
2018-03-17T09:34:35.684Z,1.00
2018-03-17T09:37:02.642Z,0.90
2018-03-17T09:39:29.508Z,1.30
2018-03-17T09:41:56.413Z,1.10
2018-03-17T09:44:24.108Z,0.90
2018-03-17T09:46:51.061Z,0.90
2018-03-17T09:49:18.016Z,1.00
2018-03-17T09:51:44.959Z,1.10
2018-03-17T09:54:11.828Z,1.00
2018-03-17T09:56:38.788Z,1.10
2018-03-17T09:59:05.668Z,1.10
2018-03-17T10:01:32.565Z,0.80
2018-03-17T10:03:59.504Z,0.80
2018-03-17T10:06:26.429Z,0.90
2018-03-17T10:08:53.358Z,1.20
2018-03-17T10:11:20.288Z,1.20
2018-03-17T10:13:47.778Z,1.50
2018-03-17T10:16:14.744Z,1.10
2018-03-17T10:18:41.724Z,1.10
2018-03-17T10:21:09.345Z,1.00
2018-03-17T10:23:36.268Z,1.00
2018-03-17T10:26:03.292Z,1.00
2018-03-17T10:28:30.498Z,1.00
2018-03-17T10:30:57.501Z,1.00
2018-03-17T10:33:25.368Z,0.90
2018-03-17T10:35:52.493Z,0.80
2018-03-17T10:38:20.149Z,0.90
2018-03-17T10:40:47.796Z,1.20
2018-03-17T10:43:14.820Z,1.10
2018-03-17T10:45:41.760Z,0.60
2018-03-17T10:48:08.789Z,0.70
2018-03-17T10:50:35.660Z,0.70
2018-03-17T10:53:02.612Z,0.50
2018-03-17T10:55:29.627Z,0.70
2018-03-17T10:57:56.601Z,0.60
2018-03-17T11:00:26.468Z,0.60
2018-03-17T11:02:54.111Z,0.90
2018-03-17T11:05:21.168Z,0.80
2018-03-17T11:07:48.196Z,1.10
2018-03-17T11:10:15.154Z,0.80
2018-03-17T11:12:42.135Z,0.50
2018-03-17T11:15:09.011Z,0.50
2018-03-17T11:17:35.927Z,0.50
2018-03-17T11:20:02.964Z,0.40
2018-03-17T11:22:29.849Z,0.60
2018-03-17T11:24:56.844Z,0.80
2018-03-17T11:27:24.483Z,0.80
2018-03-17T11:29:51.437Z,0.80
2018-03-17T11:32:18.323Z,0.60
2018-03-17T11:34:45.272Z,0.60
2018-03-17T11:37:12.162Z,0.70
2018-03-17T11:39:39.100Z,0.40
2018-03-17T11:42:06.069Z,0.30
2018-03-17T11:44:32.960Z,0.40
2018-03-17T11:46:59.976Z,0.30
2018-03-17T11:49:26.883Z,0.70
2018-03-17T11:51:53.929Z,0.70
2018-03-17T11:54:20.832Z,0.80
2018-03-17T11:56:47.872Z,0.90
2018-03-17T11:59:15.498Z,0.20
2018-03-17T12:01:42.469Z,0.10
2018-03-17T12:04:10.115Z,0.90
2018-03-17T12:06:37.079Z,0.90
2018-03-17T12:09:04.893Z,1.10
2018-03-17T12:11:31.916Z,1.10
2018-03-17T12:13:58.981Z,0.80
2018-03-17T12:16:25.856Z,0.70
2018-03-17T12:18:52.828Z,0.80
2018-03-17T12:21:19.712Z,0.80
2018-03-17T12:23:46.657Z,0.70
2018-03-17T12:26:13.575Z,0.70
2018-03-17T12:28:40.515Z,0.60
2018-03-17T12:31:08.512Z,0.30
2018-03-17T12:33:35.466Z,0.30
2018-03-17T12:36:02.382Z,0.40
2018-03-17T12:38:29.281Z,0.60
2018-03-17T12:40:56.246Z,0.60
2018-03-17T12:43:23.204Z,0.30
2018-03-17T12:45:50.091Z,0.60
2018-03-17T12:48:17.034Z,0.50
2018-03-17T12:50:44.020Z,0.20
2018-03-17T12:53:10.907Z,0.40
2018-03-17T12:55:37.870Z,0.30
2018-03-17T12:58:05.482Z,0.40
2018-03-17T13:00:32.454Z,0.30
2018-03-17T13:02:59.458Z,0.10
2018-03-17T13:05:26.398Z,0.30
2018-03-17T13:07:53.349Z,0.50
2018-03-17T13:10:32.629Z,0.00
2018-03-17T13:12:59.580Z,0.60
2018-03-17T13:15:26.472Z,0.50
2018-03-17T13:17:53.404Z,0.50
2018-03-17T13:20:20.784Z,0.10
2018-03-17T13:22:59.723Z,0.10
2018-03-17T13:25:26.664Z,-0.10
2018-03-17T13:28:05.746Z,0.10
2018-03-17T13:30:32.696Z,-0.10
2018-03-17T13:32:59.713Z,-0.20
2018-03-17T13:35:39.593Z,-0.20
2018-03-17T13:38:07.497Z,-0.40
2018-03-17T13:40:41.571Z,-0.40
2018-03-17T13:43:08.579Z,-0.30
2018-03-17T13:45:35.484Z,-0.10
2018-03-17T13:48:02.635Z,-0.10
2018-03-17T13:50:29.666Z,0.20
2018-03-17T13:52:56.633Z,0.20
2018-03-17T13:55:23.577Z,0.30
2018-03-17T13:57:50.464Z,0.30
2018-03-17T14:00:17.478Z,0.20
2018-03-17T14:02:44.380Z,0.00
2018-03-17T14:05:11.436Z,-0.10
2018-03-17T14:07:38.431Z,0.10
2018-03-17T14:10:05.387Z,0.00
2018-03-17T14:12:32.335Z,0.10
2018-03-17T14:14:59.271Z,0.10
2018-03-17T14:17:26.226Z,0.20
2018-03-17T14:19:53.101Z,0.40
2018-03-17T14:22:20.048Z,0.30
2018-03-17T14:24:46.936Z,0.00
2018-03-17T14:27:13.879Z,0.10
2018-03-17T14:29:41.798Z,0.20
2018-03-17T14:32:08.856Z,0.30
2018-03-17T14:34:35.760Z,0.50
2018-03-17T14:37:02.707Z,0.50
2018-03-17T14:39:29.593Z,0.10
2018-03-17T14:41:56.589Z,0.20
2018-03-17T14:44:23.510Z,0.10
2018-03-17T14:46:51.257Z,0.50
2018-03-17T14:49:19.006Z,0.40
2018-03-17T14:51:45.894Z,0.40
2018-03-17T14:54:12.876Z,0.10
2018-03-17T14:56:39.857Z,0.10
2018-03-17T14:59:06.731Z,-0.10
2018-03-17T15:01:33.670Z,-0.10
2018-03-17T15:04:01.325Z,-0.40
2018-03-17T15:06:29.040Z,-0.30
2018-03-17T15:08:56.009Z,-0.30
2018-03-17T15:11:22.900Z,-0.30
2018-03-17T15:13:49.876Z,-0.10
2018-03-17T15:16:16.767Z,-0.30
2018-03-17T15:18:45.623Z,-0.60
2018-03-17T15:21:13.651Z,-0.60
2018-03-17T15:23:41.154Z,-0.50
2018-03-17T15:26:09.358Z,-0.80
2018-03-17T15:28:36.381Z,-0.80
2018-03-17T15:31:03.356Z,-0.60
2018-03-17T15:33:30.271Z,-0.90
2018-03-17T15:35:57.388Z,-0.60
2018-03-17T15:38:24.459Z,-0.80
2018-03-17T15:40:51.356Z,-0.70
2018-03-17T15:43:18.284Z,-0.60
2018-03-17T15:45:45.241Z,-0.40
2018-03-17T15:48:12.217Z,-0.40
2018-03-17T15:50:39.193Z,-0.50
2018-03-17T15:53:06.159Z,-0.90
2018-03-17T15:55:33.046Z,-0.60
2018-03-17T15:58:00.735Z,-0.30
2018-03-17T16:00:27.704Z,-0.30
2018-03-17T16:02:54.597Z,-0.70
2018-03-17T16:05:22.300Z,-0.70
2018-03-17T16:07:49.247Z,-0.70
2018-03-17T16:10:16.219Z,-0.70
2018-03-17T16:12:43.202Z,-0.80
2018-03-17T16:15:10.148Z,-1.10
2018-03-17T16:17:37.852Z,-0.80
2018-03-17T16:20:04.767Z,-0.80
2018-03-17T16:22:31.712Z,-0.70
2018-03-17T16:24:58.685Z,-0.80
2018-03-17T16:27:25.588Z,-0.70
2018-03-17T16:29:53.279Z,-0.70
2018-03-17T16:32:20.213Z,-0.70
2018-03-17T16:34:48.084Z,-0.60
2018-03-17T16:37:15.035Z,-0.80
2018-03-17T16:39:41.989Z,-0.60
2018-03-17T16:42:08.961Z,-0.60
2018-03-17T16:44:35.868Z,-0.70
2018-03-17T16:47:02.852Z,-0.70
2018-03-17T16:49:29.828Z,-0.80
2018-03-17T16:51:56.792Z,-0.60
2018-03-17T16:54:23.801Z,-0.60
2018-03-17T16:56:51.568Z,-0.70
2018-03-17T16:59:18.444Z,-0.60
2018-03-17T17:01:45.456Z,-1.00
2018-03-17T17:04:12.389Z,-1.00
2018-03-17T17:06:39.412Z,-0.90
2018-03-17T17:09:07.260Z,-0.90
2018-03-17T17:11:34.227Z,-1.00
2018-03-17T17:14:01.182Z,-0.90
2018-03-17T17:16:28.184Z,-1.00
2018-03-17T17:18:55.170Z,-1.40
2018-03-17T17:21:22.115Z,-1.30
2018-03-17T17:23:49.031Z,-1.40
2018-03-17T17:26:15.971Z,-1.40
2018-03-17T17:28:42.861Z,-1.30
2018-03-17T17:31:10.514Z,-1.10
2018-03-17T17:33:37.468Z,-1.20
2018-03-17T17:36:04.693Z,-1.10
2018-03-17T17:38:32.329Z,-1.00
2018-03-17T17:40:59.292Z,-1.00
2018-03-17T17:43:26.181Z,-1.40
2018-03-17T17:45:53.181Z,-1.20
2018-03-17T17:48:20.072Z,-1.60
2018-03-17T17:50:46.963Z,-1.50
2018-03-17T17:53:13.919Z,-1.80
2018-03-17T17:55:41.615Z,-1.60
2018-03-17T17:58:08.588Z,-1.60
2018-03-17T18:00:35.475Z,-1.70
2018-03-17T18:03:02.426Z,-1.60
2018-03-17T18:05:30.056Z,-1.40
2018-03-17T18:07:57.012Z,-1.40
2018-03-17T18:10:24.015Z,-1.50
2018-03-17T18:12:50.896Z,-1.40
2018-03-17T18:15:17.831Z,-1.80
2018-03-17T18:17:44.721Z,-1.50
2018-03-17T18:20:12.342Z,-1.50
2018-03-17T18:22:39.332Z,-1.50
2018-03-17T18:25:06.959Z,-1.60
2018-03-17T18:27:33.824Z,-1.60
2018-03-17T18:30:00.790Z,-1.80
2018-03-17T18:32:28.581Z,-1.70
2018-03-17T18:34:55.463Z,-1.70
2018-03-17T18:37:22.409Z,-1.80
2018-03-17T18:39:49.325Z,-1.90
2018-03-17T18:42:16.348Z,-1.60
2018-03-17T18:44:43.274Z,-2.00
2018-03-17T18:47:10.999Z,-1.90
2018-03-17T18:49:37.929Z,-1.90
2018-03-17T18:52:04.966Z,-1.90
2018-03-17T18:54:31.916Z,-1.60
2018-03-17T18:56:59.067Z,-1.70
2018-03-17T18:59:26.116Z,-1.50
2018-03-17T19:01:53.804Z,-1.70
2018-03-17T19:04:20.752Z,-1.80
2018-03-17T19:06:47.657Z,-1.80
2018-03-17T19:09:14.611Z,-1.70
2018-03-17T19:11:41.528Z,-1.70
2018-03-17T19:14:08.479Z,-2.00
2018-03-17T19:16:36.235Z,-2.10
2018-03-17T19:19:03.204Z,-2.10
2018-03-17T19:21:30.845Z,-2.10
2018-03-17T19:23:57.808Z,-2.10
2018-03-17T19:26:24.701Z,-2.00
2018-03-17T19:28:51.708Z,-2.10
2018-03-17T19:31:19.330Z,-1.90
2018-03-17T19:33:46.241Z,-1.90
2018-03-17T19:36:13.233Z,-1.90
2018-03-17T19:38:40.136Z,-1.80
2018-03-17T19:41:07.114Z,-2.10
2018-03-17T19:43:33.976Z,-1.70
2018-03-17T19:46:00.935Z,-1.90
2018-03-17T19:48:28.569Z,-1.80
2018-03-17T19:50:55.520Z,-1.90
2018-03-17T19:53:22.541Z,-1.80
2018-03-17T19:55:49.475Z,-1.80
2018-03-17T19:58:16.387Z,-1.70
2018-03-17T20:00:43.424Z,-1.80
2018-03-17T20:03:11.106Z,-1.70
2018-03-17T20:05:38.844Z,-2.00
2018-03-17T20:08:05.744Z,-2.00
2018-03-17T20:10:32.775Z,-2.00
2018-03-17T20:12:59.689Z,-1.90
2018-03-17T20:15:26.637Z,-1.80
2018-03-17T20:17:54.287Z,-1.80
2018-03-17T20:20:21.246Z,-1.90
2018-03-17T20:22:48.142Z,-2.00
2018-03-17T20:25:15.157Z,-1.80
2018-03-17T20:27:42.801Z,-1.90
2018-03-17T20:30:09.773Z,-1.90
2018-03-17T20:32:36.687Z,-1.70
2018-03-17T20:35:04.383Z,-1.80
2018-03-17T20:37:32.113Z,-2.00
2018-03-17T20:39:59.005Z,-2.00
2018-03-17T20:42:26.040Z,-1.60
2018-03-17T20:44:52.977Z,-1.50
2018-03-17T20:47:20.673Z,-1.80
2018-03-17T20:49:47.580Z,-1.90
2018-03-17T20:52:15.283Z,-1.90
2018-03-17T20:54:42.262Z,-1.80
2018-03-17T20:57:09.154Z,-1.60
2018-03-17T20:59:36.133Z,-1.80
2018-03-17T21:02:03.073Z,-1.80
2018-03-17T21:04:30.048Z,-1.50
2018-03-17T21:06:56.942Z,-1.70
2018-03-17T21:09:23.943Z,-1.90
2018-03-17T21:11:55.328Z,-2.00
2018-03-17T21:14:23.069Z,-1.70
2018-03-17T21:16:50.140Z,-1.70
2018-03-17T21:19:31.192Z,-1.50
2018-03-17T21:21:59.068Z,-1.70
2018-03-17T21:24:26.049Z,-1.80
2018-03-17T21:26:53.007Z,-1.80
2018-03-17T21:29:19.969Z,-1.80
2018-03-17T21:31:46.925Z,-1.60
2018-03-17T21:34:13.833Z,-1.50
2018-03-17T21:36:40.784Z,-1.80
2018-03-17T21:39:07.699Z,-1.80
2018-03-17T21:41:35.465Z,-1.80
2018-03-17T21:44:02.434Z,-1.80
2018-03-17T21:46:29.389Z,-1.80
2018-03-17T21:48:56.279Z,-1.70
2018-03-17T21:51:23.308Z,-1.60
2018-03-17T21:53:50.290Z,-1.70
2018-03-17T21:56:18.127Z,-1.70
2018-03-17T21:58:45.071Z,-1.80
2018-03-17T22:01:11.952Z,-1.80
2018-03-17T22:03:38.894Z,-2.00
2018-03-17T22:06:05.776Z,-1.70
2018-03-17T22:08:32.655Z,-1.70
2018-03-17T22:10:59.668Z,-1.80
2018-03-17T22:13:26.600Z,-1.80
2018-03-17T22:15:54.308Z,-1.70
2018-03-17T22:18:21.258Z,-1.70
2018-03-17T22:20:48.135Z,-1.60
2018-03-17T22:23:15.123Z,-1.70
2018-03-17T22:25:42.021Z,-1.60
2018-03-17T22:28:09.825Z,-1.80
2018-03-17T22:30:36.724Z,-1.70
2018-03-17T22:33:03.687Z,-1.90
2018-03-17T22:35:32.332Z,-1.70
2018-03-17T22:37:59.219Z,-1.70
2018-03-17T22:40:26.908Z,-2.00
2018-03-17T22:42:53.853Z,-2.00
2018-03-17T22:45:21.139Z,-1.90
2018-03-17T22:47:48.091Z,-2.00
2018-03-17T22:50:14.959Z,-2.00
2018-03-17T22:52:41.940Z,-2.30
2018-03-17T22:55:08.864Z,-2.10
2018-03-17T22:57:35.854Z,-2.30
2018-03-17T23:00:02.864Z,-2.40
2018-03-17T23:02:29.766Z,-2.40
2018-03-17T23:04:56.716Z,-2.50
2018-03-17T23:07:23.592Z,-2.50
2018-03-17T23:09:50.534Z,-2.30
2018-03-17T23:12:17.600Z,-2.30
2018-03-17T23:14:44.570Z,-2.30
2018-03-17T23:17:11.464Z,-2.40
2018-03-17T23:19:38.451Z,-2.60
2018-03-17T23:22:06.094Z,-2.60
2018-03-17T23:24:33.037Z,-2.60
2018-03-17T23:27:00.010Z,-2.50
2018-03-17T23:29:26.928Z,-2.40
2018-03-17T23:31:53.932Z,-2.60
2018-03-17T23:34:20.831Z,-2.40
2018-03-17T23:36:48.587Z,-2.40
2018-03-17T23:39:15.584Z,-2.40
2018-03-17T23:41:42.528Z,-2.40
2018-03-17T23:44:09.533Z,-2.50
2018-03-17T23:46:37.239Z,-2.20
2018-03-17T23:49:04.296Z,-2.20
2018-03-17T23:51:31.228Z,-2.30
2018-03-17T23:53:58.234Z,-2.50
2018-03-17T23:56:25.174Z,-2.50
2018-03-17T23:58:52.247Z,-2.40
